Vela Gallego Dos — EA3200 — position and weather

sailwx.info

Track history (hours):
 
Tides and Currents Weather Stations Pressure Air Temp Water Temp Dewpoint Dewpoint Depression Visibility Wind Speed Wind Dir Waves Ship Positions

Vela Gallego Dos

Last reported at 2018-Apr-18 15:11 UTC. Time now 2018-Apr-26 11:44 UTC.
Position N 37°33' W 000°54'.

Length 24 m; draft 3 m.

Type: Fishing. MMSI: 224027970.

Date/timePositionNaut miles runAvg speedWind from/ knotsBaromVisibWave heightAir tempDewpointWater temp
2018-Apr-18 15:11N 37°33' W 000°54'3 9.6
2018-Apr-18 14:54N 37°33' W 000°51'4 9.8
2018-Apr-18 14:30N 37°32' W 000°46'7 0.7
2018-Apr-18 04:23N 37°32' W 000°37'410.4
2018-Apr-18 03:57N 37°33' W 000°43'510.4
2018-Apr-18 03:30N 37°33' W 000°49'2 0.2
2018-Apr-17 14:59N 37°33' W 000°51'510.4
2018-Apr-17 14:30N 37°33' W 000°45'10 1.1
2018-Apr-17 05:01N 37°33' W 000°32'0 7.2
2018-Apr-17 04:57N 37°32' W 000°32'7 9.6
2018-Apr-17 04:13N 37°33' W 000°41'210.5
2018-Apr-17 04:00N 37°33' W 000°44'510.5
2018-Apr-17 03:29N 37°33' W 000°51'15 1.1
2018-Apr-16 13:30N 37°32' W 000°32'2 0.3
2018-Apr-16 04:43N 37°33' W 000°35'610.5
2018-Apr-16 04:11N 37°33' W 000°42'210.6
2018-Apr-16 04:00N 37°33' W 000°44'610.6
2018-Apr-16 03:26N 37°33' W 000°52'  
Track history (hours):
 
Tides and Currents Weather Stations Pressure Air Temp Water Temp Dewpoint Dewpoint Depression Visibility Wind Speed Wind Dir Waves Ship Positions

Vela Gallego Dos

Last reported at 2018-Apr-18 15:11 UTC. Time now 2018-Apr-26 11:44 UTC.
Position N 37°33' W 000°54'.

Length 24 m; draft 3 m.

Type: Fishing. MMSI: 224027970.

Date/timePositionNaut miles runAvg speedWind from/ knotsBaromVisibWave heightAir tempDewpointWater temp
2018-Apr-18 15:11N 37°33' W 000°54'3 9.6
2018-Apr-18 14:54N 37°33' W 000°51'4 9.8
2018-Apr-18 14:30N 37°32' W 000°46'7 0.7
2018-Apr-18 04:23N 37°32' W 000°37'410.4
2018-Apr-18 03:57N 37°33' W 000°43'510.4
2018-Apr-18 03:30N 37°33' W 000°49'2 0.2
2018-Apr-17 14:59N 37°33' W 000°51'510.4
2018-Apr-17 14:30N 37°33' W 000°45'10 1.1
2018-Apr-17 05:01N 37°33' W 000°32'0 7.2
2018-Apr-17 04:57N 37°32' W 000°32'7 9.6
2018-Apr-17 04:13N 37°33' W 000°41'210.5
2018-Apr-17 04:00N 37°33' W 000°44'510.5
2018-Apr-17 03:29N 37°33' W 000°51'15 1.1
2018-Apr-16 13:30N 37°32' W 000°32'2 0.3
2018-Apr-16 04:43N 37°33' W 000°35'610.5
2018-Apr-16 04:11N 37°33' W 000°42'210.6
2018-Apr-16 04:00N 37°33' W 000°44'610.6
2018-Apr-16 03:26N 37°33' W 000°52'  

Dump ship's entire track history